Airfield :







YOU CAN JOIN US ON...

 
LOGIN :

Register | Disclaimer

   EN    FR    IT 

 









Legend :    VFR   Marginal VFR   IFR   Intensive IFR   Very Intensive IFR
Visi :
Ceiling :
>= 8 km
>= 3000ft
5 to 8 km
1000 to 3000 ft
1500m to 5 km
500 to 1000 ft
800 to 1500m
200 to 500 ft
< 800m
< 200 ft
Symbols :   Thunderstorms  Fog  Heavy snow  Heavy precipitations  Wind > 20 kt







- Airport Elevation : 534 ft
- IATA code : PQI


KPQI - Northern Maine Regional Arpt At Presque Isle

CURRENT METAR :
  • 150656Z AUTO 20011KT 10SM OVC070 14/13 A2997 RMK AO2 SLP173 T01440133

EXPIRED METARs :
  • 150556Z AUTO 20010KT 10SM BKN075 14/13 A2998 RMK AO2 SLP176 T01440133 10144 20139 58011
  • 150456Z AUTO 20006KT 10SM FEW049 14/13 A2999 RMK AO2 SLP181 T01390133 401440067

TAF KPQI
Valid from the 15 at 06:00 until the 16 at 06:00 UTC


150549Z 1506/1606 21008KT P6SM SCT025 BKN045
FM150700 22008KT P6SM BKN025
FM150900 22008KT 3SM BR BKN025
FM151000 23009KT P6SM BKN050
FM151600 26010G18KT P6SM SCT035
No reported NOTAMs for that airfield.



MET'MAP, your aeronautical weather chart ! - Copyright ORBIFLY December 2007 - Disclaimer

ORBIFLY MET'MAP TEAM :

Programming & Development : Alexandra Zaïnal
Concept & Development : Baudouin d'Aumeries
Co-Development & Prog : Marc-Olivier Méhu
Technical & hardware support : Manuel Goepfert

Contact : metmap@orbifly.com




SOURCES & CREDITS :

   NOAA